createdAt,value
2022-08-16T00:00:03.268Z,23.85
2022-08-16T00:00:48.843Z,23.89
2022-08-16T00:01:48.810Z,23.88
2022-08-16T00:02:48.927Z,23.88
2022-08-16T00:03:48.750Z,23.98
2022-08-16T00:04:51.175Z,23.94
2022-08-16T00:05:48.977Z,23.85
2022-08-16T00:06:48.713Z,23.89
2022-08-16T00:07:48.707Z,23.91
2022-08-16T00:08:48.685Z,23.88
2022-08-16T00:09:48.678Z,23.91
2022-08-16T00:10:48.658Z,23.96
2022-08-16T00:11:48.653Z,23.89
2022-08-16T00:12:49.970Z,23.91
2022-08-16T00:13:54.338Z,24.03
2022-08-16T00:14:48.607Z,24.04
2022-08-16T00:15:51.615Z,24.07
2022-08-16T00:17:01.327Z,24.15
2022-08-16T00:17:56.387Z,24.16
2022-08-16T00:18:48.559Z,24.08
2022-08-16T00:19:53.355Z,24.15
2022-08-16T00:20:48.534Z,24.06
2022-08-16T00:21:52.032Z,24.13
2022-08-16T00:22:48.797Z,24.07
2022-08-16T00:23:48.493Z,24.07
2022-08-16T00:24:51.414Z,24.07
2022-08-16T00:26:35.905Z,24.01
2022-08-16T00:26:48.451Z,23.89
2022-08-16T00:27:48.443Z,23.82
2022-08-16T00:28:48.426Z,23.81
2022-08-16T00:29:48.418Z,23.85
2022-08-16T00:30:48.403Z,23.84
2022-08-16T00:32:01.187Z,23.74
2022-08-16T00:32:48.691Z,23.78
2022-08-16T00:33:50.032Z,23.79
2022-08-16T00:34:53.200Z,23.76
2022-08-16T00:35:48.335Z,23.74
2022-08-16T00:36:48.332Z,23.78
2022-08-16T00:37:56.631Z,23.78
2022-08-16T00:38:48.299Z,23.74
2022-08-16T00:39:58.173Z,23.73
2022-08-16T00:40:50.873Z,23.84
2022-08-16T00:41:48.263Z,23.74
2022-08-16T00:42:48.473Z,23.81
2022-08-16T00:43:48.230Z,23.81
2022-08-16T00:44:48.221Z,23.73
2022-08-16T00:45:57.929Z,23.86
2022-08-16T00:46:52.653Z,23.78
2022-08-16T00:47:49.396Z,23.88
2022-08-16T00:48:48.166Z,23.86
2022-08-16T00:49:56.392Z,23.89
2022-08-16T00:50:48.143Z,23.96
2022-08-16T00:51:55.219Z,23.88
2022-08-16T00:52:50.953Z,23.89
2022-08-16T00:53:48.104Z,23.88
2022-08-16T00:54:48.088Z,23.84
2022-08-16T00:55:48.073Z,23.85
2022-08-16T00:56:57.573Z,23.91
2022-08-16T00:57:59.734Z,23.86
2022-08-16T00:58:48.042Z,23.84
2022-08-16T00:59:58.913Z,23.92
2022-08-16T01:00:53.912Z,23.91
2022-08-16T01:01:48.002Z,23.91
2022-08-16T01:02:48.978Z,23.82
2022-08-16T01:03:47.976Z,23.89
2022-08-16T01:05:09.472Z,23.86
2022-08-16T01:05:47.948Z,23.79
2022-08-16T01:06:49.330Z,23.88
2022-08-16T01:07:51.805Z,23.81
2022-08-16T01:08:47.908Z,23.85
2022-08-16T01:09:47.893Z,23.91
2022-08-16T01:10:47.885Z,23.82
2022-08-16T01:11:51.756Z,23.79
2022-08-16T01:12:48.058Z,23.70
2022-08-16T01:13:47.846Z,23.73
2022-08-16T01:14:47.828Z,23.71
2022-08-16T01:15:47.818Z,23.74
2022-08-16T01:16:47.804Z,23.74
2022-08-16T01:17:47.794Z,23.84
2022-08-16T01:18:47.776Z,23.78
2022-08-16T01:19:47.762Z,23.71
2022-08-16T01:20:47.748Z,23.69
2022-08-16T01:21:47.760Z,23.64
2022-08-16T01:22:50.115Z,23.71
2022-08-16T01:24:01.195Z,23.71
2022-08-16T01:24:53.679Z,23.71
2022-08-16T01:25:59.893Z,23.73
2022-08-16T01:26:47.675Z,23.52
2022-08-16T01:27:47.661Z,23.60
2022-08-16T01:28:47.649Z,23.56
2022-08-16T01:29:58.532Z,23.55
2022-08-16T01:30:49.764Z,23.56
2022-08-16T01:31:47.614Z,23.52
2022-08-16T01:33:01.624Z,23.63
2022-08-16T01:33:47.580Z,23.63
2022-08-16T01:34:47.753Z,23.59
2022-08-16T01:35:47.553Z,23.55
2022-08-16T01:36:47.536Z,23.61
2022-08-16T01:37:54.057Z,23.64
2022-08-16T01:38:53.184Z,23.61
2022-08-16T01:39:47.544Z,23.66
2022-08-16T01:40:47.485Z,23.63
2022-08-16T01:41:47.477Z,23.66
2022-08-16T01:42:48.141Z,23.69
2022-08-16T01:43:47.447Z,23.70
2022-08-16T01:44:47.436Z,23.63
2022-08-16T01:45:47.421Z,23.61
2022-08-16T01:46:47.409Z,23.60
2022-08-16T01:47:49.533Z,23.55
2022-08-16T01:48:47.383Z,23.56
2022-08-16T01:50:42.430Z,23.51
2022-08-16T01:51:08.759Z,23.45
2022-08-16T01:51:47.344Z,23.41
2022-08-16T01:52:47.526Z,23.41
2022-08-16T01:53:55.169Z,23.39
2022-08-16T01:54:47.299Z,23.34
2022-08-16T01:55:53.850Z,23.34
2022-08-16T01:56:47.279Z,23.25
2022-08-16T01:57:53.478Z,23.29
2022-08-16T01:58:48.002Z,23.23
2022-08-16T01:59:47.240Z,23.34
2022-08-16T02:00:47.231Z,23.23
2022-08-16T02:01:49.602Z,23.21
2022-08-16T02:02:52.448Z,23.23
2022-08-16T02:03:50.691Z,23.31
2022-08-16T02:04:49.136Z,23.28
2022-08-16T02:05:52.119Z,23.37
2022-08-16T02:06:47.165Z,23.36
2022-08-16T02:07:47.127Z,23.39
2022-08-16T02:08:47.113Z,23.45
2022-08-16T02:09:58.932Z,23.48
2022-08-16T02:10:47.091Z,23.48
2022-08-16T02:11:48.218Z,23.37
2022-08-16T02:12:55.985Z,23.39
2022-08-16T02:13:47.048Z,23.29
2022-08-16T02:14:47.031Z,23.26
2022-08-16T02:15:47.023Z,23.17
2022-08-16T02:16:47.014Z,23.08
2022-08-16T02:17:46.996Z,23.14
2022-08-16T02:18:46.983Z,23.10
2022-08-16T02:19:58.486Z,23.08
2022-08-16T02:20:46.959Z,23.11
2022-08-16T02:22:09.151Z,23.08
2022-08-16T02:22:47.058Z,23.06
2022-08-16T02:23:46.914Z,23.04
2022-08-16T02:24:46.906Z,23.08
2022-08-16T02:25:52.650Z,23.07
2022-08-16T02:26:46.875Z,23.07
2022-08-16T02:27:47.962Z,23.10
2022-08-16T02:28:47.231Z,23.06
2022-08-16T02:29:46.833Z,23.21
2022-08-16T02:30:50.784Z,23.26
2022-08-16T02:32:03.986Z,23.15
2022-08-16T02:32:50.776Z,23.23
2022-08-16T02:33:50.130Z,23.33
2022-08-16T02:34:46.770Z,23.23
2022-08-16T02:35:54.396Z,23.31
2022-08-16T02:36:49.962Z,23.28
2022-08-16T02:37:52.724Z,23.25
2022-08-16T02:38:46.721Z,23.23
2022-08-16T02:39:46.750Z,23.18
2022-08-16T02:40:46.687Z,23.13
2022-08-16T02:41:46.673Z,23.07
2022-08-16T02:42:49.746Z,23.07
2022-08-16T02:43:46.647Z,23.10
2022-08-16T02:44:46.635Z,23.13
2022-08-16T02:45:46.620Z,23.11
2022-08-16T02:46:50.709Z,23.15
2022-08-16T02:48:01.398Z,23.03
2022-08-16T02:48:49.181Z,22.98
2022-08-16T02:49:59.283Z,22.83
2022-08-16T02:50:54.984Z,22.86
2022-08-16T02:51:46.541Z,22.77
2022-08-16T02:52:46.589Z,22.70
2022-08-16T02:53:46.512Z,22.71
2022-08-16T02:54:46.496Z,22.81
2022-08-16T02:55:46.484Z,22.86
2022-08-16T02:56:47.883Z,22.81
2022-08-16T02:57:54.159Z,22.83
2022-08-16T02:58:46.454Z,22.92
2022-08-16T02:59:46.433Z,22.99
2022-08-16T03:00:50.006Z,23.01
2022-08-16T03:01:46.450Z,23.04
2022-08-16T03:02:46.616Z,23.07
2022-08-16T03:04:40.838Z,23.10
2022-08-16T03:04:52.359Z,23.11
2022-08-16T03:05:52.209Z,23.13
2022-08-16T03:06:46.336Z,23.07
2022-08-16T03:07:50.618Z,23.13
2022-08-16T03:08:52.469Z,23.04
2022-08-16T03:09:46.295Z,23.13
2022-08-16T03:10:46.285Z,23.15
2022-08-16T03:11:46.277Z,23.21
2022-08-16T03:12:56.365Z,23.08
2022-08-16T03:13:46.246Z,23.14
2022-08-16T03:14:46.231Z,23.11
2022-08-16T03:15:46.217Z,23.14
2022-08-16T03:16:59.664Z,23.11
2022-08-16T03:17:50.773Z,23.14
2022-08-16T03:18:46.174Z,23.15
2022-08-16T03:19:52.782Z,23.10
2022-08-16T03:20:46.156Z,23.15
2022-08-16T03:21:46.138Z,23.11
2022-08-16T03:22:46.251Z,23.11
2022-08-16T03:23:46.109Z,23.07
2022-08-16T03:24:46.097Z,23.04
2022-08-16T03:25:46.081Z,22.96
2022-08-16T03:26:46.067Z,22.96
2022-08-16T03:27:46.053Z,22.99
2022-08-16T03:28:46.037Z,22.83
2022-08-16T03:29:54.918Z,22.76
2022-08-16T03:30:46.013Z,22.76
2022-08-16T03:31:46.000Z,22.61
2022-08-16T03:32:47.465Z,22.73
2022-08-16T03:33:45.970Z,22.74
2022-08-16T03:34:45.962Z,22.76
2022-08-16T03:35:45.944Z,22.61
2022-08-16T03:36:45.932Z,22.62
2022-08-16T03:38:02.923Z,22.71
2022-08-16T03:38:45.904Z,22.67
2022-08-16T03:39:45.945Z,22.74
2022-08-16T03:40:45.883Z,22.77
2022-08-16T03:41:50.413Z,22.66
2022-08-16T03:43:19.024Z,22.74
2022-08-16T03:43:51.171Z,22.67
2022-08-16T03:44:49.256Z,22.64
2022-08-16T03:45:45.808Z,22.66
2022-08-16T03:46:49.802Z,22.62
2022-08-16T03:47:45.785Z,22.66
2022-08-16T03:48:45.767Z,22.62
2022-08-16T03:49:45.754Z,22.64
2022-08-16T03:50:59.853Z,22.52
2022-08-16T03:51:45.723Z,22.55
2022-08-16T03:52:45.867Z,22.53
2022-08-16T03:53:45.699Z,22.56
2022-08-16T03:54:53.540Z,22.48
2022-08-16T03:55:45.950Z,22.48
2022-08-16T03:56:58.091Z,22.49
2022-08-16T03:57:52.245Z,22.38
2022-08-16T03:58:45.634Z,22.38
2022-08-16T03:59:45.622Z,22.37
2022-08-16T04:00:45.655Z,22.38
2022-08-16T04:01:45.698Z,22.37
2022-08-16T04:02:45.577Z,22.37
2022-08-16T04:03:45.560Z,22.36
2022-08-16T04:04:45.549Z,22.28
2022-08-16T04:05:46.810Z,22.31
2022-08-16T04:06:45.524Z,22.27
2022-08-16T04:07:45.513Z,22.30
2022-08-16T04:08:45.492Z,22.31
2022-08-16T04:09:45.480Z,22.34
2022-08-16T04:10:45.466Z,22.38
2022-08-16T04:11:45.453Z,22.41
2022-08-16T04:12:54.282Z,22.46
2022-08-16T04:14:00.857Z,22.30
2022-08-16T04:14:46.580Z,22.23
2022-08-16T04:15:45.396Z,22.27
2022-08-16T04:16:45.384Z,22.28
2022-08-16T04:17:45.371Z,22.31
2022-08-16T04:18:45.356Z,22.41
2022-08-16T04:19:46.549Z,22.40
2022-08-16T04:20:45.333Z,22.46
2022-08-16T04:21:45.907Z,22.36
2022-08-16T04:22:45.298Z,22.46
2022-08-16T04:23:45.287Z,22.53
2022-08-16T04:24:54.848Z,22.46
2022-08-16T04:25:47.057Z,22.48
2022-08-16T04:26:46.107Z,22.53
2022-08-16T04:27:56.093Z,22.52
2022-08-16T04:28:53.255Z,22.52
2022-08-16T04:29:46.358Z,22.34
2022-08-16T04:30:45.190Z,22.43
2022-08-16T04:31:45.183Z,22.49
2022-08-16T04:32:49.027Z,22.30
2022-08-16T04:33:50.835Z,22.30
2022-08-16T04:34:45.132Z,22.28
2022-08-16T04:35:45.117Z,22.37
2022-08-16T04:36:45.104Z,22.34
2022-08-16T04:37:45.087Z,22.34
2022-08-16T04:38:45.079Z,22.30
2022-08-16T04:39:47.205Z,22.30
2022-08-16T04:40:45.146Z,22.37
2022-08-16T04:41:45.037Z,22.30
2022-08-16T04:42:45.021Z,22.33
2022-08-16T04:43:45.011Z,22.31
2022-08-16T04:44:54.140Z,22.22
2022-08-16T04:45:44.983Z,22.22
2022-08-16T04:47:00.921Z,22.23
2022-08-16T04:47:44.954Z,22.12
2022-08-16T04:48:44.941Z,22.21
2022-08-16T04:49:46.203Z,22.19
2022-08-16T04:50:44.913Z,22.25
2022-08-16T04:51:44.897Z,22.27
2022-08-16T04:52:44.887Z,22.22
2022-08-16T04:53:44.869Z,22.22
2022-08-16T04:54:44.856Z,22.25
2022-08-16T04:55:44.839Z,22.34
2022-08-16T04:56:46.288Z,22.22
2022-08-16T04:57:44.813Z,22.19
2022-08-16T04:58:46.918Z,22.25
2022-08-16T04:59:44.789Z,22.27
2022-08-16T05:00:44.770Z,22.33
2022-08-16T05:01:56.054Z,22.36
2022-08-16T05:02:44.795Z,22.43
2022-08-16T05:03:59.969Z,22.51
2022-08-16T05:04:44.719Z,22.52
2022-08-16T05:05:45.162Z,22.43
2022-08-16T05:06:46.054Z,22.48
2022-08-16T05:07:57.866Z,22.48
2022-08-16T05:08:47.285Z,22.46
2022-08-16T05:09:45.046Z,22.46
2022-08-16T05:10:44.633Z,22.46
2022-08-16T05:11:44.623Z,22.51
2022-08-16T05:12:45.967Z,22.49
2022-08-16T05:13:44.591Z,22.48
2022-08-16T05:14:46.312Z,22.49
2022-08-16T05:15:44.560Z,22.51
2022-08-16T05:16:44.550Z,22.49
2022-08-16T05:17:44.535Z,22.48
2022-08-16T05:18:44.529Z,22.49
2022-08-16T05:19:46.767Z,22.48
2022-08-16T05:20:54.049Z,22.46
2022-08-16T05:21:44.479Z,22.40
2022-08-16T05:22:44.692Z,22.43
2022-08-16T05:23:55.435Z,22.40
2022-08-16T05:24:44.445Z,22.44
2022-08-16T05:25:48.209Z,22.40
2022-08-16T05:26:51.268Z,22.49
2022-08-16T05:27:44.398Z,22.55
2022-08-16T05:28:44.382Z,22.51
2022-08-16T05:29:57.524Z,22.53
2022-08-16T05:30:44.362Z,22.51
2022-08-16T05:31:48.189Z,22.46
2022-08-16T05:32:47.417Z,22.43
2022-08-16T05:33:44.312Z,22.37
2022-08-16T05:34:44.301Z,22.30
2022-08-16T05:35:44.285Z,22.41
2022-08-16T05:36:44.274Z,22.43
2022-08-16T05:37:44.262Z,22.53
2022-08-16T05:38:44.242Z,22.49
2022-08-16T05:39:44.256Z,22.49
2022-08-16T05:40:57.234Z,22.37
2022-08-16T05:41:44.546Z,22.55
2022-08-16T05:42:47.640Z,22.62
2022-08-16T05:43:46.900Z,22.48
2022-08-16T05:44:44.160Z,22.66
2022-08-16T05:45:44.149Z,22.59
2022-08-16T05:46:44.133Z,22.62
2022-08-16T05:47:44.129Z,22.62
2022-08-16T05:48:44.109Z,22.73
2022-08-16T05:49:44.091Z,22.73
2022-08-16T05:50:44.080Z,22.73
2022-08-16T05:51:45.674Z,22.77
2022-08-16T05:52:44.842Z,22.78
2022-08-16T05:53:44.040Z,22.86
2022-08-16T05:54:47.504Z,22.96
2022-08-16T05:55:44.017Z,22.99
2022-08-16T05:56:43.999Z,23.01
2022-08-16T05:57:43.986Z,22.92
2022-08-16T05:58:43.974Z,22.85
2022-08-16T05:59:43.959Z,22.73
2022-08-16T06:00:43.958Z,22.71
2022-08-16T06:01:43.972Z,22.80
2022-08-16T06:02:43.979Z,22.83
2022-08-16T06:03:43.908Z,22.81
2022-08-16T06:04:45.186Z,22.89
2022-08-16T06:05:43.880Z,22.88
2022-08-16T06:06:44.910Z,22.91
2022-08-16T06:07:43.852Z,22.85
2022-08-16T06:08:46.367Z,22.86
2022-08-16T06:09:44.662Z,22.95
2022-08-16T06:11:02.693Z,22.95
2022-08-16T06:11:43.801Z,22.92
2022-08-16T06:12:43.851Z,23.01
2022-08-16T06:13:43.788Z,23.06
2022-08-16T06:14:43.764Z,23.11
2022-08-16T06:15:43.748Z,23.04
2022-08-16T06:16:43.728Z,23.08
2022-08-16T06:17:44.572Z,22.96
2022-08-16T06:18:43.703Z,23.01
2022-08-16T06:19:44.629Z,22.96
2022-08-16T06:20:55.863Z,23.03
2022-08-16T06:21:43.665Z,23.08
2022-08-16T06:23:03.053Z,23.06
2022-08-16T06:23:43.654Z,23.07
2022-08-16T06:24:53.752Z,23.18
2022-08-16T06:25:43.613Z,23.25
2022-08-16T06:26:44.998Z,23.13
2022-08-16T06:27:57.352Z,23.26
2022-08-16T06:28:43.570Z,23.21
2022-08-16T06:29:43.558Z,23.28
2022-08-16T06:30:45.255Z,23.34
2022-08-16T06:31:48.926Z,23.37
2022-08-16T06:32:48.792Z,23.45
2022-08-16T06:33:44.949Z,23.33
2022-08-16T06:34:56.872Z,23.37
2022-08-16T06:35:43.479Z,23.34
2022-08-16T06:36:43.463Z,23.34
2022-08-16T06:37:47.476Z,23.17
2022-08-16T06:38:56.036Z,23.21
2022-08-16T06:39:49.242Z,23.22
2022-08-16T06:40:49.282Z,23.23
2022-08-16T06:41:43.400Z,23.21
2022-08-16T06:42:53.916Z,23.34
2022-08-16T06:43:43.373Z,23.37
2022-08-16T06:44:43.362Z,23.36
2022-08-16T06:45:43.735Z,23.37
2022-08-16T06:46:43.336Z,23.28
2022-08-16T06:47:53.466Z,23.41
2022-08-16T06:48:45.372Z,23.21
2022-08-16T06:49:43.295Z,23.22
2022-08-16T06:50:43.281Z,23.25
2022-08-16T06:51:46.151Z,23.23
2022-08-16T06:52:57.981Z,23.37
2022-08-16T06:53:43.242Z,23.34
2022-08-16T06:54:43.238Z,23.22
2022-08-16T06:55:43.315Z,23.37
2022-08-16T06:56:43.202Z,23.48
2022-08-16T06:57:43.194Z,23.60
2022-08-16T06:58:43.181Z,23.61
2022-08-16T06:59:48.592Z,23.71
2022-08-16T07:00:43.277Z,23.88
2022-08-16T07:01:53.427Z,23.79
2022-08-16T07:02:51.384Z,23.84
2022-08-16T07:03:55.048Z,23.88
2022-08-16T07:04:43.110Z,23.98
2022-08-16T07:05:43.093Z,23.98
2022-08-16T07:06:43.523Z,24.11
2022-08-16T07:07:43.128Z,24.03
2022-08-16T07:08:43.057Z,24.04
2022-08-16T07:09:43.041Z,24.19
2022-08-16T07:10:43.033Z,24.18
2022-08-16T07:11:47.932Z,24.18
2022-08-16T07:12:47.294Z,24.26
2022-08-16T07:14:00.527Z,24.15
2022-08-16T07:14:42.983Z,24.31
2022-08-16T07:15:50.047Z,24.48
2022-08-16T07:16:43.004Z,24.62
2022-08-16T07:17:42.940Z,24.82
2022-08-16T07:19:01.660Z,24.86
2022-08-16T07:20:02.778Z,24.96
2022-08-16T07:20:47.309Z,24.97
2022-08-16T07:21:46.508Z,24.93
2022-08-16T07:22:42.887Z,24.96
2022-08-16T07:23:42.880Z,25.23
2022-08-16T07:24:45.704Z,25.30
2022-08-16T07:25:42.869Z,25.63
2022-08-16T07:26:48.776Z,25.74
2022-08-16T07:27:42.838Z,26.00
2022-08-16T07:28:42.826Z,26.10
2022-08-16T07:29:42.821Z,26.21
2022-08-16T07:30:46.672Z,26.53
2022-08-16T07:31:42.812Z,26.82
2022-08-16T07:32:42.800Z,27.34
2022-08-16T07:33:53.265Z,27.40
2022-08-16T07:34:48.270Z,27.41
2022-08-16T07:35:44.353Z,27.73
2022-08-16T07:36:42.778Z,28.06
2022-08-16T07:37:42.772Z,28.43
2022-08-16T07:38:42.768Z,28.90
2022-08-16T07:39:43.356Z,29.07
2022-08-16T07:41:00.350Z,29.62
2022-08-16T07:41:42.753Z,30.20
2022-08-16T07:42:42.751Z,29.91
2022-08-16T07:43:43.330Z,30.37
2022-08-16T07:44:50.412Z,30.95
2022-08-16T07:45:43.005Z,31.02
2022-08-16T07:46:42.740Z,31.51
2022-08-16T07:47:42.732Z,32.01
2022-08-16T07:48:42.744Z,32.51
2022-08-16T07:49:53.173Z,33.13
2022-08-16T07:50:56.350Z,32.09
2022-08-16T07:51:42.719Z,31.12
2022-08-16T07:52:42.818Z,30.64
2022-08-16T07:53:43.738Z,31.07
2022-08-16T07:54:45.739Z,31.66
2022-08-16T07:55:47.913Z,32.26
2022-08-16T07:56:42.716Z,32.39
2022-08-16T07:57:59.689Z,32.01
2022-08-16T07:58:43.361Z,32.70
2022-08-16T07:59:45.969Z,32.91
2022-08-16T08:00:42.769Z,32.73
2022-08-16T08:01:42.710Z,33.36
2022-08-16T08:02:42.752Z,33.14
2022-08-16T08:03:48.426Z,33.48
2022-08-16T08:04:42.713Z,34.20
2022-08-16T08:05:43.058Z,33.19
2022-08-16T08:06:42.719Z,33.71
2022-08-16T08:07:45.347Z,33.17
2022-08-16T08:08:50.583Z,33.58
2022-08-16T08:09:43.350Z,34.19
2022-08-16T08:10:42.720Z,35.01
2022-08-16T08:12:00.610Z,35.31
2022-08-16T08:12:43.878Z,35.53
2022-08-16T08:13:43.093Z,35.41
2022-08-16T08:14:42.717Z,35.57
2022-08-16T08:15:52.571Z,35.81
2022-08-16T08:16:45.568Z,34.47
2022-08-16T08:17:44.138Z,34.85
2022-08-16T08:18:42.729Z,35.14
2022-08-16T08:19:42.723Z,35.69
2022-08-16T08:20:42.725Z,36.33
2022-08-16T08:21:59.836Z,36.97
2022-08-16T08:22:42.729Z,37.51
2022-08-16T08:23:43.183Z,38.06
2022-08-16T08:24:44.045Z,38.35
2022-08-16T08:25:53.745Z,37.47
2022-08-16T08:26:43.010Z,37.89
2022-08-16T08:27:44.137Z,38.39
2022-08-16T08:28:42.740Z,38.59
2022-08-16T08:29:42.781Z,38.93
2022-08-16T08:30:49.798Z,38.97
2022-08-16T08:31:42.749Z,38.47
2022-08-16T08:32:57.378Z,37.91
2022-08-16T08:33:47.124Z,37.25
2022-08-16T08:34:42.755Z,37.23
2022-08-16T08:35:42.766Z,37.91
2022-08-16T08:36:42.760Z,38.48
2022-08-16T08:37:55.070Z,38.99
2022-08-16T08:38:45.579Z,39.30
2022-08-16T08:39:55.036Z,39.28
2022-08-16T08:40:42.771Z,39.54
2022-08-16T08:41:42.778Z,38.20
2022-08-16T08:42:42.781Z,38.57
2022-08-16T08:43:42.789Z,39.04
2022-08-16T08:44:42.789Z,37.01
2022-08-16T08:45:47.015Z,35.98
2022-08-16T08:46:42.793Z,36.42
2022-08-16T08:47:42.803Z,36.81
2022-08-16T08:48:43.823Z,37.25
2022-08-16T08:49:54.908Z,37.55
2022-08-16T08:50:42.805Z,36.54
2022-08-16T08:51:42.814Z,36.97
2022-08-16T08:52:42.816Z,36.38
2022-08-16T08:53:42.827Z,35.94
2022-08-16T08:54:42.819Z,35.48
2022-08-16T08:55:42.819Z,35.01
2022-08-16T08:56:45.354Z,34.50
2022-08-16T08:57:42.818Z,34.10
2022-08-16T08:58:54.353Z,33.55
2022-08-16T08:59:42.818Z,33.22
2022-08-16T09:00:51.290Z,32.98
2022-08-16T09:01:57.403Z,32.48
2022-08-16T09:02:43.027Z,32.19
2022-08-16T09:03:42.839Z,31.87
2022-08-16T09:04:42.815Z,31.48
2022-08-16T09:05:42.812Z,31.23
2022-08-16T09:06:43.898Z,31.07
2022-08-16T09:08:00.587Z,30.92
2022-08-16T09:08:47.506Z,30.86
2022-08-16T09:09:42.786Z,30.77
2022-08-16T09:10:42.783Z,30.80
2022-08-16T09:11:42.782Z,30.88
2022-08-16T09:12:46.714Z,30.75
2022-08-16T09:13:47.085Z,30.68
2022-08-16T09:14:51.116Z,30.71
2022-08-16T09:15:42.752Z,30.78
2022-08-16T09:17:03.228Z,30.85
2022-08-16T09:17:51.502Z,30.77
2022-08-16T09:18:42.768Z,30.70
2022-08-16T09:19:42.732Z,30.67
2022-08-16T09:20:59.410Z,30.68
2022-08-16T09:21:42.718Z,30.59
2022-08-16T09:22:42.717Z,30.67
2022-08-16T09:23:42.708Z,30.74
2022-08-16T09:24:52.184Z,30.71
2022-08-16T09:25:43.309Z,30.62
2022-08-16T09:26:45.684Z,30.58
2022-08-16T09:27:56.878Z,30.53
2022-08-16T09:29:15.789Z,30.67
2022-08-16T09:29:44.807Z,30.36
2022-08-16T09:30:43.940Z,30.37
2022-08-16T09:31:42.649Z,30.33
2022-08-16T09:32:42.636Z,30.14
2022-08-16T09:33:42.633Z,30.14
2022-08-16T09:34:42.626Z,30.13
2022-08-16T09:35:43.027Z,30.18
2022-08-16T09:36:45.982Z,30.18
2022-08-16T09:37:42.598Z,30.28
2022-08-16T09:38:42.589Z,30.30
2022-08-16T09:39:44.911Z,30.30
2022-08-16T09:40:43.905Z,30.35
2022-08-16T09:41:42.571Z,30.45
2022-08-16T09:42:56.054Z,30.36
2022-08-16T09:43:59.719Z,30.36
2022-08-16T09:45:09.221Z,30.48
2022-08-16T09:45:42.540Z,30.55
2022-08-16T09:46:48.902Z,30.65
2022-08-16T09:47:57.480Z,30.73
2022-08-16T09:48:44.628Z,30.80
2022-08-16T09:49:42.501Z,30.88
2022-08-16T09:50:42.496Z,30.83
2022-08-16T09:51:42.495Z,30.88
2022-08-16T09:52:47.786Z,30.77
2022-08-16T09:53:43.215Z,30.86
2022-08-16T09:54:44.657Z,30.83
2022-08-16T09:55:44.576Z,30.90
2022-08-16T09:56:52.791Z,30.92
2022-08-16T09:57:42.440Z,31.02
2022-08-16T09:59:05.689Z,31.01
2022-08-16T09:59:42.421Z,31.02
2022-08-16T10:00:45.057Z,31.15
2022-08-16T10:01:43.468Z,31.27
2022-08-16T10:02:53.089Z,31.34
2022-08-16T10:04:02.063Z,31.32
2022-08-16T10:04:54.759Z,31.22
2022-08-16T10:05:42.370Z,31.20
2022-08-16T10:06:46.182Z,31.30
2022-08-16T10:07:45.028Z,31.41
2022-08-16T10:09:04.094Z,31.37
2022-08-16T10:09:53.602Z,31.57
2022-08-16T10:10:42.330Z,31.52
2022-08-16T10:11:50.499Z,31.61
2022-08-16T10:12:43.125Z,31.60
2022-08-16T10:13:42.314Z,31.68
2022-08-16T10:14:45.997Z,31.61
2022-08-16T10:15:42.297Z,31.67
2022-08-16T10:16:42.289Z,31.76
2022-08-16T10:17:42.281Z,31.79
2022-08-16T10:19:00.611Z,31.81
2022-08-16T10:19:43.287Z,31.99
2022-08-16T10:20:42.254Z,32.04
2022-08-16T10:21:42.247Z,32.19
2022-08-16T10:22:42.233Z,32.43
2022-08-16T10:23:42.229Z,32.36
2022-08-16T10:24:55.762Z,32.60
2022-08-16T10:27:18.201Z,32.51
2022-08-16T10:27:18.693Z,32.58
2022-08-16T10:27:47.014Z,32.55
2022-08-16T10:28:42.340Z,32.68
2022-08-16T10:30:01.431Z,32.51
2022-08-16T10:30:42.175Z,32.36
2022-08-16T10:31:45.364Z,32.16
2022-08-16T10:32:42.168Z,32.01
2022-08-16T10:33:42.154Z,31.82
2022-08-16T10:34:42.150Z,31.90
2022-08-16T10:35:46.575Z,31.82
2022-08-16T10:36:42.124Z,31.75
2022-08-16T10:37:42.117Z,31.81
2022-08-16T10:38:42.354Z,31.78
2022-08-16T10:39:42.512Z,31.66
2022-08-16T10:40:45.547Z,31.75
2022-08-16T10:41:42.093Z,31.90
2022-08-16T10:42:42.084Z,32.02
2022-08-16T10:43:42.070Z,32.04
2022-08-16T10:44:42.478Z,32.13
2022-08-16T10:45:42.225Z,32.23
2022-08-16T10:46:42.402Z,32.21
2022-08-16T10:47:42.040Z,32.33
2022-08-16T10:48:42.033Z,32.43
2022-08-16T10:49:42.024Z,32.61
2022-08-16T10:50:42.013Z,32.73
2022-08-16T10:52:01.846Z,32.85
2022-08-16T10:52:42.010Z,32.90
2022-08-16T10:53:41.993Z,32.77
2022-08-16T10:55:44.228Z,32.38
2022-08-16T10:56:56.060Z,32.05
2022-08-16T10:57:41.967Z,31.86
2022-08-16T10:58:41.960Z,31.86
2022-08-16T10:59:51.876Z,31.99
2022-08-16T11:00:41.940Z,32.17
2022-08-16T11:01:44.022Z,32.05
2022-08-16T11:03:42.225Z,32.04
2022-08-16T11:03:44.733Z,32.09
2022-08-16T11:06:42.258Z,32.38
2022-08-16T11:07:43.046Z,32.45
2022-08-16T11:08:45.511Z,32.41
2022-08-16T11:09:43.186Z,32.38
2022-08-16T11:12:41.849Z,32.64
2022-08-16T11:13:59.252Z,32.46
2022-08-16T11:15:11.374Z,32.31
2022-08-16T11:15:42.161Z,32.14
2022-08-16T11:17:11.428Z,32.16
2022-08-16T11:17:44.992Z,32.02
2022-08-16T11:19:03.081Z,32.08
2022-08-16T11:20:42.901Z,31.81
2022-08-16T11:22:48.525Z,31.81
2022-08-16T11:23:56.743Z,31.99
2022-08-16T11:24:44.652Z,31.99
2022-08-16T11:26:07.872Z,31.82
2022-08-16T11:26:41.737Z,31.67
2022-08-16T11:27:41.727Z,31.64
2022-08-16T11:29:41.712Z,31.39
2022-08-16T11:30:41.712Z,31.27
2022-08-16T11:31:43.439Z,31.19
2022-08-16T11:32:41.696Z,31.14
2022-08-16T11:33:57.095Z,31.01
2022-08-16T11:35:05.802Z,30.97
2022-08-16T11:36:21.961Z,30.95
2022-08-16T11:36:53.967Z,30.99
2022-08-16T11:38:51.354Z,31.30
2022-08-16T11:39:41.684Z,31.42
2022-08-16T11:40:44.460Z,31.52
2022-08-16T11:41:43.636Z,31.61
2022-08-16T11:42:41.606Z,31.67
2022-08-16T11:43:41.606Z,31.84
2022-08-16T11:44:56.170Z,31.99
2022-08-16T11:45:42.502Z,32.06
2022-08-16T11:46:45.142Z,32.19
2022-08-16T11:47:41.591Z,32.31
2022-08-16T11:48:41.564Z,32.36
2022-08-16T11:49:41.557Z,32.36
2022-08-16T11:50:41.545Z,32.50
2022-08-16T11:51:41.537Z,32.50
2022-08-16T11:52:46.506Z,32.57
2022-08-16T11:53:41.521Z,32.68
2022-08-16T11:54:41.513Z,32.69
2022-08-16T11:55:44.160Z,32.69
2022-08-16T11:56:52.816Z,32.72
2022-08-16T11:57:41.492Z,32.85
2022-08-16T11:58:41.527Z,32.87
2022-08-16T11:59:41.477Z,32.90
2022-08-16T12:00:50.633Z,32.94
2022-08-16T12:01:54.720Z,32.94
2022-08-16T12:02:46.079Z,33.01
2022-08-16T12:03:41.731Z,32.98
2022-08-16T12:04:41.508Z,33.09
2022-08-16T12:05:41.432Z,33.07
2022-08-16T12:06:41.428Z,32.97
2022-08-16T12:07:41.470Z,32.99
2022-08-16T12:08:41.411Z,33.01
2022-08-16T12:09:43.537Z,32.87
2022-08-16T12:10:43.202Z,32.91
2022-08-16T12:11:41.410Z,32.85
2022-08-16T12:12:41.386Z,32.90
2022-08-16T12:13:41.366Z,32.92
2022-08-16T12:14:41.367Z,32.90
2022-08-16T12:15:41.357Z,32.83
2022-08-16T12:16:48.642Z,32.83
2022-08-16T12:17:41.368Z,32.87
2022-08-16T12:18:41.373Z,32.85
2022-08-16T12:19:41.332Z,32.72
2022-08-16T12:20:41.320Z,32.60
2022-08-16T12:21:58.837Z,32.64
2022-08-16T12:22:41.309Z,32.64
2022-08-16T12:23:41.300Z,32.63
2022-08-16T12:24:41.290Z,32.68
2022-08-16T12:25:41.277Z,32.75
2022-08-16T12:26:41.274Z,32.75
2022-08-16T12:27:41.268Z,32.70
2022-08-16T12:28:54.648Z,32.38
2022-08-16T12:29:41.257Z,32.43
2022-08-16T12:30:41.247Z,32.13
2022-08-16T12:32:00.520Z,32.04
2022-08-16T12:32:42.025Z,31.86
2022-08-16T12:33:44.406Z,31.74
2022-08-16T12:34:50.800Z,31.61
2022-08-16T12:35:41.204Z,31.46
2022-08-16T12:36:41.201Z,31.44
2022-08-16T12:37:41.729Z,31.42
2022-08-16T12:38:48.419Z,31.49
2022-08-16T12:39:47.043Z,31.51
2022-08-16T12:40:41.895Z,31.57
2022-08-16T12:41:45.230Z,31.74
2022-08-16T12:42:41.149Z,31.79
2022-08-16T12:43:45.237Z,31.86
2022-08-16T12:44:41.137Z,31.90
2022-08-16T12:45:41.126Z,32.19
2022-08-16T12:46:41.119Z,32.26
2022-08-16T12:47:41.116Z,32.31
2022-08-16T12:48:42.288Z,32.36
2022-08-16T12:49:42.061Z,32.45
2022-08-16T12:50:41.114Z,32.45
2022-08-16T12:51:59.490Z,32.42
2022-08-16T12:52:44.471Z,32.35
2022-08-16T12:53:41.066Z,32.42
2022-08-16T12:54:41.058Z,32.43
2022-08-16T12:55:41.821Z,32.41
2022-08-16T12:56:41.037Z,32.38
2022-08-16T12:57:41.036Z,32.39
2022-08-16T12:58:49.350Z,32.48
2022-08-16T12:59:41.017Z,32.35
2022-08-16T13:00:41.024Z,32.38